Time;durP1;ratioP1;P1;durP2;ratioP2;P2;SDS_P1;SDS_P2;PMS_P1;PMS_P2;Temp;Humidity;BMP_temperature;BMP_pressure;BME280_temperature;BME280_humidity;BME280_pressure;Samples;Min_cycle;Max_cycle;Signal;HPM_P1;HPM_P2
2023/11/26 00:02:23;;;;;;;20.33;5.67;;;5.60;96.00;;;;;;773366;184;26464;-90
2023/11/26 00:04:50;;;;;;;17.33;5.80;;;5.60;95.90;;;;;;772794;184;26452;-91
2023/11/26 00:07:17;;;;;;;24.37;8.50;;;5.60;96.50;;;;;;774531;183;27026;-91
2023/11/26 00:09:43;;;;;;;17.70;5.67;;;5.50;96.00;;;;;;779753;183;27758;-90
2023/11/26 00:12:10;;;;;;;30.33;9.77;;;5.50;96.10;;;;;;778593;183;26461;-89
2023/11/26 00:14:38;;;;;;;16.43;7.07;;;5.50;95.90;;;;;;775432;183;26447;-89
2023/11/26 00:17:05;;;;;;;26.50;10.30;;;5.50;96.10;;;;;;773891;181;26461;-90
2023/11/26 00:19:33;;;;;;;19.97;6.43;;;5.50;96.40;;;;;;772842;184;26526;-90
2023/11/26 00:21:58;;;;;;;51.20;24.97;;;5.60;96.70;;;;;;772519;184;26464;-89
2023/11/26 00:24:24;;;;;;;21.70;8.73;;;5.60;96.40;;;;;;781093;183;27014;-91
2023/11/26 00:26:51;;;;;;;109.63;42.97;;;5.50;96.30;;;;;;773787;179;26471;-89
2023/11/26 00:29:18;;;;;;;39.23;17.90;;;5.50;96.50;;;;;;774287;181;26491;-90
2023/11/26 00:31:45;;;;;;;25.70;10.50;;;5.50;96.40;;;;;;775941;179;26449;-89
2023/11/26 00:34:12;;;;;;;18.47;7.67;;;5.50;96.70;;;;;;775197;181;26445;-89
2023/11/26 00:36:38;;;;;;;19.13;6.90;;;5.50;96.30;;;;;;777963;179;26600;-89
2023/11/26 00:39:05;;;;;;;21.13;7.33;;;5.60;96.30;;;;;;774061;184;26539;-90
2023/11/26 00:41:32;;;;;;;15.17;7.07;;;5.50;96.20;;;;;;773509;184;26464;-92
2023/11/26 00:43:59;;;;;;;18.63;7.17;;;5.50;96.40;;;;;;776686;183;26538;-90
2023/11/26 00:46:25;;;;;;;27.33;10.77;;;5.50;96.50;;;;;;773835;184;26460;-91
2023/11/26 00:48:52;;;;;;;35.77;12.33;;;5.50;96.70;;;;;;769911;183;26495;-90
2023/11/26 00:51:19;;;;;;;50.53;20.43;;;5.50;96.50;;;;;;777462;183;26496;-91
2023/11/26 00:53:45;;;;;;;30.37;11.57;;;5.50;96.60;;;;;;777500;183;26460;-91
2023/11/26 00:56:12;;;;;;;16.07;7.67;;;5.50;96.30;;;;;;769268;183;26509;-91
2023/11/26 00:58:38;;;;;;;22.50;9.07;;;5.50;96.80;;;;;;772540;181;26480;-91
2023/11/26 01:01:05;;;;;;;31.30;12.17;;;5.50;96.30;;;;;;774045;181;27035;-91
2023/11/26 01:03:32;;;;;;;47.83;19.50;;;5.40;96.40;;;;;;771628;184;26452;-91
2023/11/26 01:05:58;;;;;;;45.73;20.97;;;5.50;96.50;;;;;;774165;183;27028;-90
2023/11/26 01:08:25;;;;;;;34.23;12.90;;;5.40;96.40;;;;;;775726;184;26564;-90
2023/11/26 01:10:52;;;;;;;28.50;9.60;;;5.40;96.40;;;;;;772197;185;28137;-91
2023/11/26 01:13:19;;;;;;;31.50;11.67;;;5.40;96.30;;;;;;774621;184;26460;-90
2023/11/26 01:15:46;;;;;;;25.60;9.10;;;5.40;96.40;;;;;;776933;184;26886;-90
2023/11/26 01:18:14;;;;;;;23.00;8.83;;;5.40;96.40;;;;;;775712;181;26492;-91
2023/11/26 01:20:41;;;;;;;31.27;13.73;;;5.40;96.60;;;;;;772857;184;26464;-90
2023/11/26 01:23:08;;;;;;;41.33;17.13;;;5.40;96.40;;;;;;772957;183;26463;-90
2023/11/26 01:25:34;;;;;;;28.90;11.70;;;5.40;96.50;;;;;;772458;184;26478;-91
2023/11/26 01:28:01;;;;;;;25.13;11.00;;;5.40;96.80;;;;;;772826;184;26498;-91
2023/11/26 01:30:28;;;;;;;29.90;13.60;;;5.50;97.00;;;;;;770133;184;26472;-91
2023/11/26 01:32:54;;;;;;;44.00;18.60;;;5.40;96.70;;;;;;774930;184;26460;-90
2023/11/26 01:35:21;;;;;;;34.80;17.53;;;5.40;96.50;;;;;;773269;183;26465;-91
2023/11/26 01:37:48;;;;;;;20.83;8.70;;;5.40;96.30;;;;;;776301;184;26538;-90
2023/11/26 01:40:14;;;;;;;15.70;8.33;;;5.30;96.40;;;;;;773634;181;26437;-90
2023/11/26 01:42:43;;;;;;;18.80;9.17;;;5.40;96.70;;;;;;774486;181;26470;-90
2023/11/26 01:45:08;;;;;;;20.90;9.40;;;5.40;96.20;;;;;;777779;181;26469;-91
2023/11/26 01:47:34;;;;;;;19.37;9.50;;;5.40;96.30;;;;;;775573;184;26488;-91
2023/11/26 01:50:02;;;;;;;25.80;10.77;;;5.50;96.80;;;;;;772971;184;27021;-90
2023/11/26 01:52:29;;;;;;;27.20;8.90;;;5.50;96.90;;;;;;776191;184;27071;-90
2023/11/26 01:54:55;;;;;;;28.10;13.17;;;5.50;96.80;;;;;;775849;183;27087;-90
2023/11/26 01:57:22;;;;;;;20.40;10.30;;;5.50;96.90;;;;;;776915;184;26487;-90
2023/11/26 01:59:48;;;;;;;25.73;9.20;;;5.40;96.30;;;;;;774857;181;27029;-90
2023/11/26 02:02:15;;;;;;;22.40;10.87;;;5.40;96.30;;;;;;771922;182;26462;-90
2023/11/26 02:13:47;;;;;;;;;;;;;;;;;;;;;
2023/11/26 03:06:03;;;;;;;57.00;21.83;;;5.10;96.60;;;;;;743741;176;26469;-88
2023/11/26 04:26:55;;;;;;;;;;;;;;;;;;;;;
2023/11/26 04:32:44;;;;;;;92.53;39.60;;;4.10;98.00;;;;;;773524;185;26516;-88
2023/11/26 04:38:01;;;;;;;78.97;38.37;;;4.10;98.10;;;;;;756313;183;26621;-88
2023/11/26 04:40:27;;;;;;;53.23;25.90;;;4.20;98.30;;;;;;768723;186;27067;-87
2023/11/26 04:42:54;;;;;;;46.80;23.03;;;4.20;98.30;;;;;;767924;186;26502;-87
2023/11/26 04:45:20;;;;;;;103.10;49.50;;;4.20;98.30;;;;;;767108;186;26499;-89
2023/11/26 04:47:49;;;;;;;93.17;43.73;;;4.20;98.40;;;;;;759924;187;26522;-87
2023/11/26 04:50:18;;;;;;;52.97;27.60;;;4.20;98.30;;;;;;763478;185;27064;-89
2023/11/26 04:52:44;;;;;;;43.27;23.63;;;4.20;98.40;;;;;;762304;188;27053;-88
2023/11/26 04:55:12;;;;;;;46.20;24.67;;;4.30;98.50;;;;;;763429;188;26513;-88
2023/11/26 04:57:39;;;;;;;47.33;23.37;;;4.30;98.50;;;;;;763417;188;26568;-88
2023/11/26 05:00:07;;;;;;;38.13;21.97;;;4.30;98.50;;;;;;762524;188;26505;-89
2023/11/26 05:02:34;;;;;;;44.77;23.23;;;4.40;98.60;;;;;;763825;184;26500;-88
2023/11/26 05:05:00;;;;;;;47.77;25.70;;;4.40;98.60;;;;;;763137;188;26509;-88
2023/11/26 05:07:28;;;;;;;70.40;37.37;;;4.40;98.60;;;;;;762284;185;26513;-88
2023/11/26 05:10:01;;;;;;;79.67;40.07;;;4.40;98.60;;;;;;764203;184;26508;-89
2023/11/26 05:12:28;;;;;;;107.73;51.10;;;4.50;98.70;;;;;;762365;187;28118;-87
2023/11/26 05:14:55;;;;;;;64.77;31.83;;;4.50;98.60;;;;;;761601;185;26572;-89
2023/11/26 05:17:21;;;;;;;144.50;61.20;;;4.50;98.60;;;;;;762362;187;27080;-88
2023/11/26 05:22:23;;;;;;;109.87;49.50;;;4.60;98.60;;;;;;761351;188;26542;-88
2023/11/26 05:24:51;;;;;;;62.67;32.10;;;4.60;98.60;;;;;;763126;184;26592;-89
2023/11/26 05:27:29;;;;;;;54.53;27.87;;;4.50;98.50;;;;;;763582;188;26595;-89
2023/11/26 05:30:01;;;;;;;80.07;33.43;;;4.60;98.60;;;;;;762718;188;26509;-89
2023/11/26 05:32:31;;;;;;;54.60;25.23;;;4.60;98.50;;;;;;761066;188;26582;-89
2023/11/26 05:35:27;;;;;;;55.57;27.57;;;4.80;98.60;;;;;;762315;188;26569;-88
2023/11/26 05:40:29;;;;;;;46.57;23.00;;;4.60;98.40;;;;;;789983;180;26990;-89
2023/11/26 05:42:56;;;;;;;52.17;25.00;;;4.60;98.40;;;;;;790644;176;26598;-89
2023/11/26 05:45:22;;;;;;;61.43;27.03;;;4.60;98.30;;;;;;786314;177;26597;-89
2023/11/26 05:47:48;;;;;;;51.50;25.47;;;4.70;98.30;;;;;;777354;178;26471;-89
2023/11/26 05:50:18;;;;;;;55.57;25.13;;;4.60;98.30;;;;;;768844;185;26479;-89
2023/11/26 05:52:45;;;;;;;48.23;23.73;;;4.70;98.40;;;;;;773430;182;27018;-89
2023/11/26 05:55:11;;;;;;;48.93;21.43;;;4.80;98.60;;;;;;768193;183;26474;-89
2023/11/26 05:57:37;;;;;;;58.03;24.23;;;4.70;98.50;;;;;;771338;179;26474;-89
2023/11/26 06:00:05;;;;;;;49.43;22.40;;;4.80;98.60;;;;;;779594;184;26463;-89
2023/11/26 06:02:32;;;;;;;49.33;23.20;;;4.80;98.60;;;;;;776176;181;27078;-90
2023/11/26 06:04:58;;;;;;;47.93;22.47;;;4.80;98.60;;;;;;775928;180;26599;-89
2023/11/26 06:07:26;;;;;;;45.60;23.00;;;4.80;98.60;;;;;;775656;181;26470;-88
2023/11/26 06:09:52;;;;;;;47.80;21.33;;;4.90;98.60;;;;;;779423;183;26516;-89
2023/11/26 06:12:19;;;;;;;46.37;23.23;;;4.90;98.60;;;;;;768690;181;26455;-88
2023/11/26 06:14:45;;;;;;;51.07;22.20;;;4.90;98.90;;;;;;772190;183;26471;-88
2023/11/26 06:17:12;;;;;;;39.67;20.40;;;4.90;98.60;;;;;;770665;184;26492;-90
2023/11/26 06:19:39;;;;;;;39.60;21.20;;;4.90;98.50;;;;;;765812;181;26468;-89
2023/11/26 06:22:08;;;;;;;50.30;22.90;;;4.90;98.50;;;;;;768298;182;27099;-89
2023/11/26 06:24:40;;;;;;;45.90;23.00;;;5.00;98.50;;;;;;773700;182;26478;-90
2023/11/26 06:27:07;;;;;;;50.57;21.87;;;5.00;98.40;;;;;;769300;183;26473;-88
2023/11/26 06:29:34;;;;;;;48.63;22.37;;;5.00;98.40;;;;;;774755;181;26498;-89
2023/11/26 06:32:01;;;;;;;42.97;22.13;;;5.00;98.40;;;;;;773287;179;26487;-91
2023/11/26 06:34:27;;;;;;;47.70;22.53;;;5.00;98.30;;;;;;767684;180;28120;-89
2023/11/26 06:39:30;;;;;;;47.03;23.50;;;5.10;98.30;;;;;;774090;184;27088;-90
2023/11/26 06:41:55;;;;;;;46.87;22.77;;;5.10;98.10;;;;;;766327;187;26505;-88
2023/11/26 06:44:22;;;;;;;36.73;21.03;;;5.10;98.00;;;;;;768584;184;26538;-90
2023/11/26 06:46:58;;;;;;;46.07;22.20;;;5.10;97.90;;;;;;765747;184;26570;-88
2023/11/26 06:49:29;;;;;;;51.87;25.03;;;5.00;97.80;;;;;;775259;183;26603;-91
2023/11/26 06:51:56;;;;;;;51.90;23.77;;;5.00;97.90;;;;;;747511;190;26483;-90
2023/11/26 06:54:27;;;;;;;54.00;25.77;;;5.00;97.80;;;;;;782673;183;26501;-90
2023/11/26 06:56:54;;;;;;;55.97;24.20;;;4.90;97.90;;;;;;765775;180;26495;-89
2023/11/26 06:59:21;;;;;;;53.83;24.50;;;5.00;98.10;;;;;;780899;184;27047;-91
2023/11/26 07:01:53;;;;;;;53.80;25.23;;;5.00;98.30;;;;;;780527;184;26477;-92
2023/11/26 07:04:29;;;;;;;49.20;25.83;;;5.00;98.30;;;;;;779664;184;26495;-88
2023/11/26 07:06:56;;;;;;;45.33;24.50;;;5.10;98.40;;;;;;778809;181;27055;-89
2023/11/26 07:09:25;;;;;;;53.33;23.47;;;5.20;98.40;;;;;;777075;184;26505;-89
2023/11/26 07:11:54;;;;;;;42.73;23.37;;;5.20;98.40;;;;;;774474;181;26495;-88
2023/11/26 07:14:25;;;;;;;49.30;25.23;;;5.20;98.20;;;;;;774350;184;27000;-89
2023/11/26 07:16:58;;;;;;;43.40;24.13;;;5.20;98.10;;;;;;768274;184;26532;-90
2023/11/26 07:19:29;;;;;;;44.83;23.67;;;5.20;98.00;;;;;;768273;187;27068;-89
2023/11/26 07:21:55;;;;;;;46.53;23.57;;;5.20;97.90;;;;;;768300;187;26534;-89
2023/11/26 07:24:22;;;;;;;43.30;23.10;;;5.20;97.70;;;;;;765326;186;28213;-92
2023/11/26 07:27:01;;;;;;;41.07;22.73;;;5.30;97.90;;;;;;770444;182;28256;-91
2023/11/26 07:29:27;;;;;;;46.50;22.47;;;5.30;97.90;;;;;;759367;186;27126;-90
2023/11/26 07:32:04;;;;;;;42.83;22.37;;;5.30;97.80;;;;;;771703;184;26502;-89
2023/11/26 07:34:33;;;;;;;37.63;23.43;;;5.40;97.80;;;;;;772094;184;26485;-88
2023/11/26 07:37:03;;;;;;;53.10;25.60;;;5.40;97.80;;;;;;763104;184;26573;-90
2023/11/26 07:39:37;;;;;;;46.47;24.33;;;5.40;97.70;;;;;;762978;184;26511;-92
2023/11/26 07:42:05;;;;;;;47.57;23.83;;;5.50;97.80;;;;;;767435;186;26480;-89
2023/11/26 07:44:45;;;;;;;43.17;23.43;;;5.50;97.80;;;;;;775475;184;26523;-91
2023/11/26 07:47:14;;;;;;;42.10;21.40;;;5.50;97.60;;;;;;769265;184;26518;-88
2023/11/26 07:49:49;;;;;;;47.23;22.57;;;5.60;97.40;;;;;;762675;186;27077;-90
2023/11/26 07:52:17;;;;;;;45.53;23.03;;;5.60;97.40;;;;;;763242;187;26499;-89
2023/11/26 07:54:44;;;;;;;45.53;21.50;;;5.50;97.20;;;;;;763630;185;26496;-88
2023/11/26 07:57:19;;;;;;;45.70;22.80;;;5.60;97.40;;;;;;764691;185;27103;-89
2023/11/26 07:59:53;;;;;;;38.67;20.20;;;5.60;97.40;;;;;;767723;186;26560;-88
2023/11/26 08:02:29;;;;;;;48.53;23.00;;;5.60;97.20;;;;;;767984;187;26490;-88
2023/11/26 08:05:05;;;;;;;42.37;22.13;;;5.60;97.30;;;;;;768134;186;26504;-89
2023/11/26 08:07:36;;;;;;;44.90;22.23;;;5.70;97.50;;;;;;767954;184;26510;-89
2023/11/26 08:10:18;;;;;;;38.20;20.77;;;5.70;97.30;;;;;;767617;187;26523;-90
2023/11/26 08:12:39;;;;;;;41.63;22.77;;;5.70;97.00;;;;;;766982;187;27058;-88
2023/11/26 08:15:14;;;;;;;40.33;20.80;;;5.80;97.00;;;;;;767494;186;26507;-89
2023/11/26 08:17:49;;;;;;;39.40;21.77;;;5.80;97.00;;;;;;780182;175;26510;-89
2023/11/26 08:20:13;;;;;;;39.63;21.07;;;5.90;97.10;;;;;;781459;184;27034;-88
2023/11/26 08:22:46;;;;;;;35.00;19.37;;;6.00;97.10;;;;;;781594;184;27021;-88
2023/11/26 08:25:29;;;;;;;37.77;21.07;;;6.00;96.60;;;;;;781306;183;27036;-88
2023/11/26 08:27:58;;;;;;;39.10;19.83;;;6.00;96.60;;;;;;774659;178;26558;-88
2023/11/26 08:30:32;;;;;;;35.70;19.80;;;6.10;96.70;;;;;;765178;186;27188;-92
2023/11/26 08:33:01;;;;;;;37.10;19.80;;;6.20;96.60;;;;;;785481;180;26515;-89
2023/11/26 08:35:29;;;;;;;36.13;19.13;;;6.20;96.40;;;;;;770216;181;26495;-90
2023/11/26 08:38:05;;;;;;;40.83;21.63;;;6.20;96.20;;;;;;785406;177;26501;-92
2023/11/26 08:40:48;;;;;;;37.23;19.87;;;6.30;96.40;;;;;;785206;181;26480;-91
2023/11/26 08:43:18;;;;;;;30.93;18.77;;;6.30;96.10;;;;;;786084;180;26483;-94
2023/11/26 08:45:55;;;;;;;31.93;19.17;;;6.40;96.00;;;;;;759793;187;26535;-90
2023/11/26 08:48:24;;;;;;;39.20;18.53;;;6.40;95.90;;;;;;785422;181;26513;-92
2023/11/26 08:50:54;;;;;;;32.20;18.87;;;6.50;95.60;;;;;;785787;180;26492;-88
2023/11/26 08:53:23;;;;;;;37.03;20.60;;;6.50;96.00;;;;;;785942;178;26484;-89
2023/11/26 08:55:57;;;;;;;35.87;19.87;;;6.60;95.60;;;;;;785087;178;27191;-89
2023/11/26 08:58:34;;;;;;;30.97;17.40;;;6.70;95.70;;;;;;785027;181;26915;-90
2023/11/26 09:01:09;;;;;;;34.43;20.17;;;6.70;95.20;;;;;;760032;186;27141;-91
2023/11/26 09:03:46;;;;;;;38.37;20.20;;;6.70;95.40;;;;;;784832;181;26463;-91
2023/11/26 09:06:18;;;;;;;33.07;18.63;;;6.80;95.40;;;;;;784551;181;26893;-89
2023/11/26 09:08:52;;;;;;;34.93;18.67;;;6.80;94.70;;;;;;759774;187;26531;-88
2023/11/26 09:11:20;;;;;;;31.97;18.73;;;6.80;94.80;;;;;;771690;183;26489;-92
2023/11/26 09:13:47;;;;;;;38.30;18.97;;;6.90;95.10;;;;;;786475;180;26481;-88
2023/11/26 09:16:17;;;;;;;33.27;18.90;;;7.00;95.40;;;;;;760620;186;27209;-89
2023/11/26 09:18:44;;;;;;;37.70;18.17;;;7.10;95.00;;;;;;760280;185;27089;-89
2023/11/26 09:21:12;;;;;;;36.20;19.63;;;6.90;94.40;;;;;;785096;180;26452;-92
2023/11/26 09:23:38;;;;;;;30.67;17.87;;;6.90;94.60;;;;;;785687;180;26463;-92
2023/11/26 09:26:10;;;;;;;38.13;21.77;;;6.90;94.70;;;;;;770943;183;27114;-91
2023/11/26 09:28:37;;;;;;;37.40;18.43;;;7.00;94.80;;;;;;785608;181;26469;-92
2023/11/26 09:33:36;;;;;;;36.80;18.73;;;7.20;94.80;;;;;;785494;181;26457;-91
2023/11/26 09:36:04;;;;;;;36.63;18.83;;;7.40;94.90;;;;;;772769;182;27360;-92
2023/11/26 09:38:31;;;;;;;32.30;17.50;;;7.50;94.60;;;;;;784919;181;26750;-92
2023/11/26 09:41:01;;;;;;;31.43;17.37;;;7.60;94.10;;;;;;785375;181;26480;-91
2023/11/26 09:43:34;;;;;;;31.07;18.13;;;7.60;94.30;;;;;;773111;181;26490;-91
2023/11/26 09:46:05;;;;;;;28.87;16.67;;;7.60;93.80;;;;;;760209;186;26487;-87
2023/11/26 09:48:32;;;;;;;28.30;16.07;;;7.70;93.70;;;;;;784683;181;26469;-90
2023/11/26 09:51:08;;;;;;;28.97;17.27;;;7.70;93.30;;;;;;784702;181;27031;-89
2023/11/26 09:53:37;;;;;;;29.93;16.30;;;7.70;93.50;;;;;;760133;187;26510;-88
2023/11/26 09:56:01;;;;;;;30.03;16.90;;;7.60;93.10;;;;;;785184;181;26544;-92
2023/11/26 10:01:09;;;;;;;32.57;19.17;;;7.60;94.10;;;;;;785167;181;26479;-89
2023/11/26 10:03:52;;;;;;;32.87;17.70;;;7.70;94.00;;;;;;785274;180;26526;-92
2023/11/26 10:06:35;;;;;;;30.57;18.23;;;7.70;93.70;;;;;;770088;183;26515;-90
2023/11/26 10:09:01;;;;;;;61.50;35.13;;;7.80;94.20;;;;;;785356;181;27119;-89
2023/11/26 10:11:28;;;;;;;33.17;19.63;;;7.90;94.00;;;;;;763840;187;26574;-92
2023/11/26 10:16:43;;;;;;;30.40;20.63;;;7.80;93.00;;;;;;784890;180;26472;-89
2023/11/26 10:19:28;;;;;;;37.33;19.27;;;7.80;93.30;;;;;;770132;184;26509;-87
2023/11/26 10:27:21;;;;;;;32.43;18.40;;;8.00;93.90;;;;;;761215;185;26573;-93
2023/11/26 10:29:47;;;;;;;41.00;24.40;;;7.90;93.10;;;;;;760870;187;27060;-91
2023/11/26 10:32:34;;;;;;;31.83;20.03;;;8.00;93.80;;;;;;760881;187;26579;-88
2023/11/26 10:38:08;;;;;;;47.57;29.50;;;8.00;93.00;;;;;;765427;180;27199;-91
2023/11/26 10:55:25;;;;;;;35.80;22.27;;;8.20;92.90;;;;;;793385;180;26452;-89
2023/11/26 11:01:04;;;;;;;196.17;85.77;;;8.40;92.60;;;;;;738152;191;27191;-90
2023/11/26 11:03:31;;;;;;;97.43;51.67;;;8.40;94.00;;;;;;739838;192;26528;-89
2023/11/26 11:53:10;;;;;;;53.83;29.40;;;7.90;95.00;;;;;;740390;175;26547;-90
2023/11/26 11:55:49;;;;;;;70.97;39.23;;;7.90;94.80;;;;;;783823;183;26580;-91
2023/11/26 13:15:37;;;;;;;99.90;55.43;;;8.10;97.10;;;;;;736555;176;26506;-89
2023/11/26 13:18:04;;;;;;;40.90;24.23;;;8.00;96.40;;;;;;779776;183;26494;-89
2023/11/26 13:20:37;;;;;;;45.90;29.40;;;8.00;96.70;;;;;;773758;184;27016;-91
2023/11/26 13:23:09;;;;;;;60.47;36.43;;;7.90;96.50;;;;;;780635;184;27018;-91
2023/11/26 13:25:41;;;;;;;69.33;38.90;;;8.00;97.10;;;;;;770965;183;26529;-91
2023/11/26 13:28:09;;;;;;;55.57;36.40;;;8.00;96.70;;;;;;777456;184;26499;-90
2023/11/26 13:30:38;;;;;;;168.40;85.53;;;7.90;96.10;;;;;;776973;184;27004;-90
2023/11/26 13:33:04;;;;;;;79.93;44.07;;;7.80;96.60;;;;;;762638;187;26512;-87
2023/11/26 13:35:32;;;;;;;55.23;31.20;;;7.80;96.70;;;;;;776876;183;27045;-88
2023/11/26 13:37:59;;;;;;;51.93;31.63;;;7.80;96.60;;;;;;785624;183;26401;-88
2023/11/26 13:40:27;;;;;;;60.23;30.63;;;7.80;97.10;;;;;;771770;180;27027;-87
2023/11/26 13:42:53;;;;;;;88.03;43.43;;;7.80;97.10;;;;;;782242;183;26490;-88
2023/11/26 13:45:24;;;;;;;51.70;30.73;;;7.70;96.20;;;;;;782231;180;26504;-88
2023/11/26 13:47:51;;;;;;;30.33;20.10;;;7.70;96.50;;;;;;782190;181;26488;-86
2023/11/26 13:50:21;;;;;;;41.07;27.27;;;7.70;96.70;;;;;;782236;184;26988;-88
2023/11/26 13:52:48;;;;;;;56.37;32.70;;;7.70;96.90;;;;;;782245;184;27019;-88
2023/11/26 13:55:14;;;;;;;59.07;39.30;;;7.60;96.40;;;;;;782834;183;26478;-93
2023/11/26 13:57:43;;;;;;;66.83;40.47;;;7.70;96.50;;;;;;784429;181;26479;-87
2023/11/26 14:00:10;;;;;;;32.80;19.80;;;7.60;96.30;;;;;;784406;183;26499;-88
2023/11/26 14:02:47;;;;;;;140.50;66.60;;;7.60;96.50;;;;;;784080;183;26478;-88
2023/11/26 14:05:31;;;;;;;28.30;18.50;;;7.60;96.30;;;;;;783821;183;26492;-89
2023/11/26 14:08:00;;;;;;;94.07;49.23;;;7.60;96.40;;;;;;783340;183;28080;-88
2023/11/26 14:10:33;;;;;;;53.43;31.90;;;7.50;96.20;;;;;;783322;183;26465;-89
2023/11/26 14:13:01;;;;;;;187.13;92.63;;;7.50;96.50;;;;;;783053;183;27108;-89
2023/11/26 14:15:27;;;;;;;189.87;95.50;;;7.50;96.80;;;;;;782441;180;26508;-91
2023/11/26 14:17:53;;;;;;;89.23;45.53;;;7.50;96.80;;;;;;782279;184;27088;-87
2023/11/26 14:20:20;;;;;;;257.20;120.50;;;7.50;97.00;;;;;;782475;184;26528;-90
2023/11/26 14:22:47;;;;;;;236.60;99.77;;;7.50;96.80;;;;;;782286;184;26539;-88
2023/11/26 14:25:14;;;;;;;100.23;48.20;;;7.40;96.90;;;;;;782497;184;26559;-90
2023/11/26 14:27:41;;;;;;;62.13;33.93;;;7.30;96.70;;;;;;782484;180;26521;-89
2023/11/26 14:30:12;;;;;;;54.90;31.73;;;7.40;97.10;;;;;;782512;184;26523;-90
2023/11/26 14:32:39;;;;;;;49.70;27.50;;;7.30;96.90;;;;;;782106;184;26564;-90
2023/11/26 14:35:10;;;;;;;126.03;61.67;;;7.30;96.90;;;;;;782038;184;26503;-89
2023/11/26 14:37:39;;;;;;;46.90;26.10;;;7.30;97.20;;;;;;781874;184;26473;-91
2023/11/26 14:40:12;;;;;;;38.47;22.20;;;7.30;96.90;;;;;;781388;180;26488;-92
2023/11/26 14:42:37;;;;;;;57.90;31.77;;;7.20;96.90;;;;;;767278;187;26532;-92
2023/11/26 14:45:05;;;;;;;171.87;83.47;;;7.20;97.20;;;;;;767204;184;26540;-92
2023/11/26 14:47:33;;;;;;;116.07;53.73;;;7.20;97.10;;;;;;768926;176;26495;-92
2023/11/26 14:50:04;;;;;;;199.97;91.87;;;7.20;97.20;;;;;;770410;176;26510;-93
2023/11/26 14:52:31;;;;;;;177.37;81.43;;;7.10;97.30;;;;;;755745;184;26512;-92
2023/11/26 14:54:59;;;;;;;135.07;62.10;;;7.10;97.30;;;;;;771755;186;26499;-91
2023/11/26 14:57:30;;;;;;;141.37;68.40;;;7.10;97.80;;;;;;768633;182;28089;-92
2023/11/26 14:59:56;;;;;;;205.60;105.03;;;7.00;97.40;;;;;;771154;186;26479;-91
2023/11/26 15:02:26;;;;;;;123.30;67.47;;;7.00;97.60;;;;;;770802;186;26576;-91
2023/11/26 15:04:51;;;;;;;195.30;95.23;;;7.00;97.60;;;;;;767417;187;26496;-91
2023/11/26 15:07:20;;;;;;;77.53;42.67;;;7.00;97.70;;;;;;767573;187;26509;-91
2023/11/26 15:09:51;;;;;;;121.43;70.33;;;7.00;97.80;;;;;;769784;185;26499;-93
2023/11/26 15:12:19;;;;;;;56.20;33.87;;;7.00;97.70;;;;;;769366;183;26548;-90
2023/11/26 15:14:45;;;;;;;51.70;30.47;;;7.00;97.70;;;;;;769316;187;27058;-90
2023/11/26 15:17:11;;;;;;;126.77;64.57;;;7.00;97.70;;;;;;768639;187;26517;-91
2023/11/26 15:19:38;;;;;;;75.70;40.67;;;7.00;97.90;;;;;;768445;187;26526;-90
2023/11/26 15:24:41;;;;;;;142.47;67.87;;;7.00;97.70;;;;;;768319;187;26504;-92
2023/11/26 15:30:09;;;;;;;76.00;40.63;;;6.90;97.60;;;;;;768045;187;26520;-90
2023/11/26 15:32:35;;;;;;;157.17;78.07;;;6.90;97.50;;;;;;766989;187;26505;-90
2023/11/26 15:35:01;;;;;;;316.93;144.03;;;6.90;97.60;;;;;;768403;187;26534;-90
2023/11/26 15:37:38;;;;;;;165.10;79.17;;;6.90;97.70;;;;;;768601;187;26522;-90
2023/11/26 15:40:10;;;;;;;177.23;80.37;;;6.90;97.80;;;;;;768469;187;26520;-92
2023/11/26 15:48:39;;;;;;;232.93;111.80;;;6.90;97.70;;;;;;804557;177;26489;-95
2023/11/26 15:51:10;;;;;;;40.53;22.80;;;6.90;97.60;;;;;;806225;174;26442;-95
2023/11/26 15:53:38;;;;;;;116.40;49.33;;;6.80;97.40;;;;;;806324;174;26413;-95
2023/11/26 15:56:06;;;;;;;86.83;42.30;;;6.90;97.70;;;;;;797743;176;26445;-94
2023/11/26 15:58:33;;;;;;;136.20;60.33;;;6.90;98.10;;;;;;791462;178;26524;-94
2023/11/26 16:00:59;;;;;;;41.97;22.00;;;6.80;97.50;;;;;;789387;182;26449;-92
2023/11/26 16:03:26;;;;;;;37.90;19.90;;;6.80;97.30;;;;;;789593;182;26490;-91
2023/11/26 16:05:53;;;;;;;39.83;21.77;;;6.80;97.50;;;;;;788434;179;26465;-90
2023/11/26 16:08:25;;;;;;;137.23;61.37;;;6.80;97.90;;;;;;790169;182;26445;-92
2023/11/26 16:10:55;;;;;;;46.80;26.67;;;6.70;97.80;;;;;;789713;182;27137;-91
2023/11/26 16:13:22;;;;;;;61.97;33.70;;;6.70;97.90;;;;;;791408;182;26494;-93
2023/11/26 16:15:49;;;;;;;24.03;13.80;;;6.70;98.00;;;;;;786857;177;26473;-95
2023/11/26 16:18:36;;;;;;;81.00;42.77;;;6.70;98.20;;;;;;793064;177;26428;-93
2023/11/26 16:21:28;;;;;;;;;;;;;;;;;;;;;
2023/11/26 16:32:30;;;;;;;19.63;12.00;;;6.70;98.50;;;;;;791793;181;26416;-90
2023/11/26 16:54:22;;;;;;;191.07;86.20;;;6.70;98.40;;;;;;775657;181;26565;-94
2023/11/26 16:56:51;;;;;;;129.43;55.83;;;6.70;98.40;;;;;;774986;184;26469;-93
2023/11/26 16:59:16;;;;;;;344.00;151.43;;;6.70;98.40;;;;;;770250;181;26473;-93
2023/11/26 17:04:25;;;;;;;137.83;62.23;;;6.70;98.30;;;;;;771146;185;26476;-93
2023/11/26 17:06:51;;;;;;;115.00;53.80;;;6.60;97.90;;;;;;776428;182;26459;-94
2023/11/26 17:09:17;;;;;;;230.23;107.13;;;6.60;98.10;;;;;;772436;181;26479;-95
2023/11/26 17:11:44;;;;;;;226.10;98.03;;;6.60;98.20;;;;;;771828;180;26492;-93
2023/11/26 17:14:40;;;;;;;191.00;87.90;;;6.60;97.90;;;;;;780930;178;26433;-96
2023/11/26 17:17:08;;;;;;;146.40;66.43;;;6.60;97.80;;;;;;805468;171;26459;-92
2023/11/26 17:19:36;;;;;;;142.87;67.73;;;6.60;97.60;;;;;;808034;173;26508;-94
2023/11/26 17:22:04;;;;;;;128.70;58.93;;;6.50;97.30;;;;;;787994;179;26467;-92
2023/11/26 17:24:37;;;;;;;286.40;131.43;;;6.60;97.50;;;;;;793216;178;26506;-94
2023/11/26 17:27:11;;;;;;;186.17;90.80;;;6.50;97.40;;;;;;789096;179;26469;-93
2023/11/26 17:29:54;;;;;;;253.83;113.07;;;6.50;97.50;;;;;;783259;181;26447;-90
2023/11/26 17:32:31;;;;;;;88.37;42.10;;;6.50;97.50;;;;;;792122;179;26457;-94
2023/11/26 17:34:58;;;;;;;207.33;87.77;;;6.50;97.30;;;;;;794560;180;26446;-93
2023/11/26 17:40:19;;;;;;;131.87;59.60;;;6.40;97.40;;;;;;747126;175;26441;-93
2023/11/26 17:48:22;;;;;;;225.47;92.80;;;6.50;97.80;;;;;;782200;182;26426;-91
2023/11/26 17:53:45;;;;;;;226.87;96.97;;;6.50;97.50;;;;;;785299;180;26444;-94
2023/11/26 17:56:13;;;;;;;208.77;87.80;;;6.40;97.20;;;;;;784527;181;26468;-93
2023/11/26 17:58:39;;;;;;;541.43;299.97;;;6.40;97.40;;;;;;775707;181;26633;-92
2023/11/26 18:01:13;;;;;;;113.23;52.67;;;6.40;97.30;;;;;;777797;182;26486;-92
2023/11/26 18:03:40;;;;;;;287.13;123.07;;;6.50;97.60;;;;;;784191;179;26571;-93
2023/11/26 18:06:47;;;;;;;237.60;105.33;;;6.40;97.20;;;;;;789847;179;26440;-94
2023/11/26 18:09:11;;;;;;;127.00;58.77;;;6.40;97.10;;;;;;785456;181;26460;-93
2023/11/26 18:11:47;;;;;;;124.23;57.00;;;6.40;97.10;;;;;;773704;183;26492;-94
2023/11/26 18:17:13;;;;;;;76.97;33.03;;;6.30;96.70;;;;;;787912;180;26475;-94
2023/11/26 18:19:42;;;;;;;241.23;107.23;;;6.30;96.30;;;;;;787049;179;27100;-92
2023/11/26 18:22:23;;;;;;;345.43;149.10;;;6.30;96.40;;;;;;789101;181;26502;-93
2023/11/26 18:24:57;;;;;;;224.80;97.50;;;6.30;96.40;;;;;;783150;177;26514;-91
2023/11/26 18:27:34;;;;;;;174.67;78.30;;;6.30;96.90;;;;;;788153;179;26462;-93
2023/11/26 18:49:51;;;;;;;;;;;;;;;;;;;;;
2023/11/26 18:55:18;;;;;;;81.97;42.23;;;6.20;96.10;;;;;;754435;187;26986;-92
2023/11/26 19:03:29;;;;;;;126.97;53.97;;;6.20;96.20;;;;;;730487;175;26560;-92
2023/11/26 19:06:11;;;;;;;151.57;64.20;;;6.10;96.40;;;;;;788561;181;26453;-92
2023/11/26 19:08:38;;;;;;;121.87;56.13;;;6.10;96.10;;;;;;785725;181;26983;-91
2023/11/26 19:11:25;;;;;;;260.50;110.37;;;6.10;95.90;;;;;;768298;187;26578;-91
2023/11/26 19:16:40;;;;;;;259.97;121.17;;;6.10;96.50;;;;;;794152;180;26415;-90
2023/11/26 19:30:33;;;;;;;175.70;86.50;;;6.10;96.70;;;;;;746961;174;26435;-94
2023/11/26 19:33:11;;;;;;;85.43;42.17;;;6.20;96.50;;;;;;802160;174;26423;-96
2023/11/26 19:35:40;;;;;;;60.90;29.27;;;6.20;96.70;;;;;;813555;175;26443;-94
2023/11/26 19:43:57;;;;;;;195.27;83.93;;;6.20;96.60;;;;;;771733;186;27021;-91
2023/11/26 19:46:36;;;;;;;139.70;60.27;;;6.10;95.90;;;;;;773969;183;28209;-91
2023/11/26 20:00:30;;;;;;;166.90;69.03;;;6.10;95.60;;;;;;748552;172;26477;-92